sensor_id;sensor_type;location;lat;lon;timestamp;pressure;altitude;pressure_sealevel;temperature;humidity
26087;BME280;13851;43.434;28.338;2022-07-29T00:00:14;99968.84;;;25.27;100.00
26087;BME280;13851;43.434;28.338;2022-07-29T00:02:40;99992.75;;;25.45;100.00
26087;BME280;13851;43.434;28.338;2022-07-29T00:05:07;99962.13;;;25.33;100.00
26087;BME280;13851;43.434;28.338;2022-07-29T00:07:33;99990.78;;;25.46;100.00
26087;BME280;13851;43.434;28.338;2022-07-29T00:09:59;99998.38;;;25.45;100.00
26087;BME280;13851;43.434;28.338;2022-07-29T00:12:25;99995.25;;;25.41;100.00
26087;BME280;13851;43.434;28.338;2022-07-29T00:14:52;99749.59;;;23.96;100.00
26087;BME280;13851;43.434;28.338;2022-07-29T00:17:18;99902.03;;;24.88;100.00
26087;BME280;13851;43.434;28.338;2022-07-29T00:19:43;99716.19;;;23.79;100.00
26087;BME280;13851;43.434;28.338;2022-07-29T00:22:09;99967.75;;;25.33;100.00
26087;BME280;13851;43.434;28.338;2022-07-29T00:24:34;99991.91;;;25.50;100.00
26087;BME280;13851;43.434;28.338;2022-07-29T00:27:00;99979.56;;;25.46;100.00
26087;BME280;13851;43.434;28.338;2022-07-29T00:29:25;99981.53;;;25.40;100.00
26087;BME280;13851;43.434;28.338;2022-07-29T00:31:51;99949.81;;;25.24;100.00
26087;BME280;13851;43.434;28.338;2022-07-29T00:34:16;99994.16;;;25.48;100.00
26087;BME280;13851;43.434;28.338;2022-07-29T00:37:00;99930.13;;;25.09;100.00
26087;BME280;13851;43.434;28.338;2022-07-29T00:39:26;99994.13;;;25.42;100.00
26087;BME280;13851;43.434;28.338;2022-07-29T00:41:51;99819.69;;;24.22;100.00
26087;BME280;13851;43.434;28.338;2022-07-29T00:44:17;99995.81;;;25.38;100.00
26087;BME280;13851;43.434;28.338;2022-07-29T00:46:42;99943.03;;;25.10;100.00
26087;BME280;13851;43.434;28.338;2022-07-29T00:49:08;99993.56;;;25.30;100.00
26087;BME280;13851;43.434;28.338;2022-07-29T00:51:35;99772.22;;;23.95;100.00
26087;BME280;13851;43.434;28.338;2022-07-29T00:54:02;99992.41;;;25.26;100.00
26087;BME280;13851;43.434;28.338;2022-07-29T00:56:30;99966.53;;;25.04;100.00
26087;BME280;13851;43.434;28.338;2022-07-29T00:58:57;99995.50;;;25.25;100.00
26087;BME280;13851;43.434;28.338;2022-07-29T01:01:22;99755.41;;;23.84;100.00
26087;BME280;13851;43.434;28.338;2022-07-29T01:03:48;99913.19;;;24.78;100.00
26087;BME280;13851;43.434;28.338;2022-07-29T01:06:16;99991.28;;;25.22;100.00
26087;BME280;13851;43.434;28.338;2022-07-29T01:08:42;99772.50;;;23.93;100.00
26087;BME280;13851;43.434;28.338;2022-07-29T01:11:09;99989.88;;;25.20;100.00
26087;BME280;13851;43.434;28.338;2022-07-29T01:13:36;100022.09;;;25.17;100.00
26087;BME280;13851;43.434;28.338;2022-07-29T01:16:32;99986.25;;;25.19;100.00
26087;BME280;13851;43.434;28.338;2022-07-29T01:19:23;99989.03;;;25.14;100.00
26087;BME280;13851;43.434;28.338;2022-07-29T01:21:57;99741.81;;;23.61;100.00
26087;BME280;13851;43.434;28.338;2022-07-29T01:27:08;99880.81;;;24.40;100.00
26087;BME280;13851;43.434;28.338;2022-07-29T01:29:45;99999.38;;;25.08;100.00
26087;BME280;13851;43.434;28.338;2022-07-29T01:32:18;99955.28;;;24.94;100.00
26087;BME280;13851;43.434;28.338;2022-07-29T01:35:06;100016.22;;;25.13;100.00
26087;BME280;13851;43.434;28.338;2022-07-29T01:38:08;99980.63;;;25.19;100.00
26087;BME280;13851;43.434;28.338;2022-07-29T01:40:46;99985.66;;;25.17;100.00
26087;BME280;13851;43.434;28.338;2022-07-29T01:43:17;99958.38;;;25.02;100.00
26087;BME280;13851;43.434;28.338;2022-07-29T01:45:47;99966.53;;;25.04;100.00
26087;BME280;13851;43.434;28.338;2022-07-29T01:48:18;99980.63;;;25.14;100.00
26087;BME280;13851;43.434;28.338;2022-07-29T01:50:52;99971.06;;;25.10;100.00
26087;BME280;13851;43.434;28.338;2022-07-29T01:53:29;99949.13;;;25.02;100.00
26087;BME280;13851;43.434;28.338;2022-07-29T01:55:59;99951.38;;;25.00;100.00
26087;BME280;13851;43.434;28.338;2022-07-29T01:58:27;99978.34;;;25.11;100.00
26087;BME280;13851;43.434;28.338;2022-07-29T02:00:56;99978.88;;;25.08;100.00
26087;BME280;13851;43.434;28.338;2022-07-29T02:03:23;99938.44;;;24.83;100.00
26087;BME280;13851;43.434;28.338;2022-07-29T02:05:50;99974.94;;;25.04;100.00
26087;BME280;13851;43.434;28.338;2022-07-29T02:08:18;99963.72;;;24.99;100.00
26087;BME280;13851;43.434;28.338;2022-07-29T02:10:46;99972.69;;;25.06;100.00
26087;BME280;13851;43.434;28.338;2022-07-29T02:13:14;99963.97;;;25.02;100.00
26087;BME280;13851;43.434;28.338;2022-07-29T02:15:42;99949.13;;;24.97;100.00
26087;BME280;13851;43.434;28.338;2022-07-29T02:18:19;99887.88;;;24.53;100.00
26087;BME280;13851;43.434;28.338;2022-07-29T02:20:51;99967.03;;;24.90;100.00
26087;BME280;13851;43.434;28.338;2022-07-29T02:23:20;99948.50;;;24.79;100.00
26087;BME280;13851;43.434;28.338;2022-07-29T02:25:54;99956.09;;;24.89;100.00
26087;BME280;13851;43.434;28.338;2022-07-29T02:28:22;99931.94;;;24.73;100.00
26087;BME280;13851;43.434;28.338;2022-07-29T02:30:51;99884.47;;;24.46;100.00
26087;BME280;13851;43.434;28.338;2022-07-29T02:33:18;99940.63;;;24.76;100.00
26087;BME280;13851;43.434;28.338;2022-07-29T02:35:46;99974.91;;;24.99;100.00
26087;BME280;13851;43.434;28.338;2022-07-29T02:38:15;99989.50;;;25.01;100.00
26087;BME280;13851;43.434;28.338;2022-07-29T02:41:08;99972.97;;;25.04;100.00
26087;BME280;13851;43.434;28.338;2022-07-29T02:43:37;99721.66;;;23.59;100.00
26087;BME280;13851;43.434;28.338;2022-07-29T02:46:05;99932.81;;;24.83;100.00
26087;BME280;13851;43.434;28.338;2022-07-29T02:48:39;99956.16;;;24.99;100.00
26087;BME280;13851;43.434;28.338;2022-07-29T02:51:19;99973.28;;;25.08;100.00
26087;BME280;13851;43.434;28.338;2022-07-29T02:53:51;99950.50;;;24.89;100.00
26087;BME280;13851;43.434;28.338;2022-07-29T02:56:24;99919.91;;;24.82;100.00
26087;BME280;13851;43.434;28.338;2022-07-29T02:58:55;99964.81;;;25.03;100.00
26087;BME280;13851;43.434;28.338;2022-07-29T03:01:24;99941.50;;;24.87;100.00
26087;BME280;13851;43.434;28.338;2022-07-29T03:03:53;99965.31;;;24.79;100.00
26087;BME280;13851;43.434;28.338;2022-07-29T03:06:20;99973.75;;;24.84;100.00
26087;BME280;13851;43.434;28.338;2022-07-29T03:08:48;99954.53;;;24.56;100.00
26087;BME280;13851;43.434;28.338;2022-07-29T03:11:15;99972.63;;;24.90;100.00
26087;BME280;13851;43.434;28.338;2022-07-29T03:13:42;99972.63;;;24.90;100.00
26087;BME280;13851;43.434;28.338;2022-07-29T03:16:09;99923.78;;;24.66;100.00
26087;BME280;13851;43.434;28.338;2022-07-29T03:18:38;99758.59;;;23.61;100.00
26087;BME280;13851;43.434;28.338;2022-07-29T03:21:04;99753.25;;;23.59;100.00
26087;BME280;13851;43.434;28.338;2022-07-29T03:23:30;99980.53;;;24.99;100.00
26087;BME280;13851;43.434;28.338;2022-07-29T03:25:56;99971.50;;;24.92;100.00
26087;BME280;13851;43.434;28.338;2022-07-29T03:28:22;99996.28;;;25.10;100.00
26087;BME280;13851;43.434;28.338;2022-07-29T03:30:49;99974.00;;;24.78;100.00
26087;BME280;13851;43.434;28.338;2022-07-29T03:33:15;99989.00;;;25.09;100.00
26087;BME280;13851;43.434;28.338;2022-07-29T03:35:41;99988.41;;;25.07;100.00
26087;BME280;13851;43.434;28.338;2022-07-29T03:38:07;99980.03;;;25.12;100.00
26087;BME280;13851;43.434;28.338;2022-07-29T03:43:07;99949.13;;;24.97;100.00
26087;BME280;13851;43.434;28.338;2022-07-29T03:45:36;99995.22;;;25.26;100.00
26087;BME280;13851;43.434;28.338;2022-07-29T03:48:10;99991.59;;;25.36;100.00
26087;BME280;13851;43.434;28.338;2022-07-29T03:50:37;100009.81;;;25.38;100.00
26087;BME280;13851;43.434;28.338;2022-07-29T03:53:03;99985.41;;;25.24;100.00
26087;BME280;13851;43.434;28.338;2022-07-29T03:55:33;99992.47;;;25.47;100.00
26087;BME280;13851;43.434;28.338;2022-07-29T03:58:02;99929.03;;;25.15;100.00
26087;BME280;13851;43.434;28.338;2022-07-29T04:00:29;99982.94;;;25.58;100.00
26087;BME280;13851;43.434;28.338;2022-07-29T04:02:56;99933.25;;;25.33;100.00
26087;BME280;13851;43.434;28.338;2022-07-29T04:05:22;99981.56;;;25.71;100.00
26087;BME280;13851;43.434;28.338;2022-07-29T04:07:48;99979.66;;;25.81;100.00
26087;BME280;13851;43.434;28.338;2022-07-29T04:10:14;99988.34;;;25.90;100.00
26087;BME280;13851;43.434;28.338;2022-07-29T04:12:44;99962.81;;;25.86;100.00
26087;BME280;13851;43.434;28.338;2022-07-29T04:15:11;99976.84;;;26.02;100.00
26087;BME280;13851;43.434;28.338;2022-07-29T04:17:37;99760.22;;;24.77;100.00
26087;BME280;13851;43.434;28.338;2022-07-29T04:20:03;99984.66;;;26.15;100.00
26087;BME280;13851;43.434;28.338;2022-07-29T04:22:29;99995.63;;;26.22;100.00
26087;BME280;13851;43.434;28.338;2022-07-29T04:24:55;99976.22;;;26.30;100.00
26087;BME280;13851;43.434;28.338;2022-07-29T04:27:21;99956.03;;;26.23;100.00
26087;BME280;13851;43.434;28.338;2022-07-29T04:29:47;99978.19;;;26.45;100.00
26087;BME280;13851;43.434;28.338;2022-07-29T04:32:12;99972.03;;;26.48;100.00
26087;BME280;13851;43.434;28.338;2022-07-29T04:34:38;99975.13;;;26.52;100.00
26087;BME280;13851;43.434;28.338;2022-07-29T04:37:03;99950.41;;;26.43;100.00
26087;BME280;13851;43.434;28.338;2022-07-29T04:39:29;99958.78;;;26.59;100.00
26087;BME280;13851;43.434;28.338;2022-07-29T04:41:54;99971.97;;;26.68;100.00
26087;BME280;13851;43.434;28.338;2022-07-29T04:44:20;99968.28;;;26.78;100.00
26087;BME280;13851;43.434;28.338;2022-07-29T04:46:46;99921.44;;;26.53;100.00
26087;BME280;13851;43.434;28.338;2022-07-29T04:49:11;99972.16;;;26.92;100.00
26087;BME280;13851;43.434;28.338;2022-07-29T04:51:37;99803.94;;;25.96;100.00
26087;BME280;13851;43.434;28.338;2022-07-29T04:54:03;99926.34;;;26.82;100.00
26087;BME280;13851;43.434;28.338;2022-07-29T04:56:28;99901.38;;;26.75;100.00
26087;BME280;13851;43.434;28.338;2022-07-29T04:58:54;99958.91;;;27.03;100.00
26087;BME280;13851;43.434;28.338;2022-07-29T05:01:19;99963.63;;;27.18;100.00
26087;BME280;13851;43.434;28.338;2022-07-29T05:03:45;99933.81;;;27.07;100.00
26087;BME280;13851;43.434;28.338;2022-07-29T05:06:11;99966.66;;;27.27;100.00
26087;BME280;13851;43.434;28.338;2022-07-29T05:08:37;99938.06;;;27.14;100.00
26087;BME280;13851;43.434;28.338;2022-07-29T05:11:03;99970.91;;;27.24;100.00
26087;BME280;13851;43.434;28.338;2022-07-29T05:13:29;99964.56;;;27.47;100.00
26087;BME280;13851;43.434;28.338;2022-07-29T05:15:54;99942.63;;;27.44;100.00
26087;BME280;13851;43.434;28.338;2022-07-29T05:18:20;99965.84;;;27.70;100.00
26087;BME280;13851;43.434;28.338;2022-07-29T05:20:46;99963.22;;;27.79;100.00
26087;BME280;13851;43.434;28.338;2022-07-29T05:23:11;99748.38;;;26.52;100.00
26087;BME280;13851;43.434;28.338;2022-07-29T05:25:40;99931.44;;;27.73;100.00
26087;BME280;13851;43.434;28.338;2022-07-29T05:28:06;99940.34;;;27.91;100.00
26087;BME280;13851;43.434;28.338;2022-07-29T05:30:32;99951.78;;;27.99;100.00
26087;BME280;13851;43.434;28.338;2022-07-29T05:32:57;99964.88;;;28.14;100.00
26087;BME280;13851;43.434;28.338;2022-07-29T05:35:23;99966.22;;;28.22;100.00
26087;BME280;13851;43.434;28.338;2022-07-29T05:37:49;99959.66;;;28.32;100.00
26087;BME280;13851;43.434;28.338;2022-07-29T05:40:14;99923.41;;;28.20;100.00
26087;BME280;13851;43.434;28.338;2022-07-29T05:42:40;99963.50;;;28.46;100.00
26087;BME280;13851;43.434;28.338;2022-07-29T05:45:05;99934.56;;;28.35;100.00
26087;BME280;13851;43.434;28.338;2022-07-29T05:47:31;99708.28;;;27.15;100.00
26087;BME280;13851;43.434;28.338;2022-07-29T05:49:57;99931.94;;;28.68;100.00
26087;BME280;13851;43.434;28.338;2022-07-29T05:52:22;99946.38;;;28.85;100.00
26087;BME280;13851;43.434;28.338;2022-07-29T05:54:48;99950.19;;;28.99;100.00
26087;BME280;13851;43.434;28.338;2022-07-29T05:57:21;99927.84;;;29.03;100.00
26087;BME280;13851;43.434;28.338;2022-07-29T05:59:48;99946.56;;;29.18;100.00
26087;BME280;13851;43.434;28.338;2022-07-29T06:02:14;99952.06;;;29.28;100.00
26087;BME280;13851;43.434;28.338;2022-07-29T06:04:40;99956.31;;;29.44;100.00
26087;BME280;13851;43.434;28.338;2022-07-29T06:07:07;99946.31;;;29.52;100.00
26087;BME280;13851;43.434;28.338;2022-07-29T06:09:34;99945.25;;;29.67;100.00
26087;BME280;13851;43.434;28.338;2022-07-29T06:12:00;99970.50;;;29.77;100.00
26087;BME280;13851;43.434;28.338;2022-07-29T06:14:26;99906.88;;;29.66;100.00
26087;BME280;13851;43.434;28.338;2022-07-29T06:16:56;99883.31;;;29.57;100.00
26087;BME280;13851;43.434;28.338;2022-07-29T06:19:24;99968.94;;;30.03;100.00
26087;BME280;13851;43.434;28.338;2022-07-29T06:21:50;99962.69;;;30.07;96.10
26087;BME280;13851;43.434;28.338;2022-07-29T06:24:16;99961.69;;;30.16;91.46
26087;BME280;13851;43.434;28.338;2022-07-29T06:26:42;99935.66;;;30.00;92.22
26087;BME280;13851;43.434;28.338;2022-07-29T06:29:12;99966.31;;;30.26;86.85
26087;BME280;13851;43.434;28.338;2022-07-29T06:31:38;99934.94;;;30.09;84.78
26087;BME280;13851;43.434;28.338;2022-07-29T06:34:03;99988.09;;;30.39;83.84
26087;BME280;13851;43.434;28.338;2022-07-29T06:36:29;99906.34;;;29.96;80.57
26087;BME280;13851;43.434;28.338;2022-07-29T06:38:55;99935.22;;;30.26;85.67
26087;BME280;13851;43.434;28.338;2022-07-29T06:41:21;99949.16;;;30.36;85.22
26087;BME280;13851;43.434;28.338;2022-07-29T06:43:48;99779.09;;;29.41;82.22
26087;BME280;13851;43.434;28.338;2022-07-29T06:46:15;99955.28;;;30.57;80.13
26087;BME280;13851;43.434;28.338;2022-07-29T06:48:43;99978.56;;;30.82;80.31
26087;BME280;13851;43.434;28.338;2022-07-29T06:51:10;99956.16;;;30.71;83.80
26087;BME280;13851;43.434;28.338;2022-07-29T06:53:36;99948.19;;;30.73;75.97
26087;BME280;13851;43.434;28.338;2022-07-29T06:56:04;99846.47;;;30.27;75.23
26087;BME280;13851;43.434;28.338;2022-07-29T06:58:30;99963.13;;;31.01;73.20
26087;BME280;13851;43.434;28.338;2022-07-29T07:01:00;99950.34;;;31.04;89.28
26087;BME280;13851;43.434;28.338;2022-07-29T07:03:26;99985.25;;;31.27;74.83
26087;BME280;13851;43.434;28.338;2022-07-29T07:05:52;99961.13;;;31.29;72.54
26087;BME280;13851;43.434;28.338;2022-07-29T07:08:19;99942.75;;;31.41;81.24
26087;BME280;13851;43.434;28.338;2022-07-29T07:10:46;99978.63;;;31.68;73.81
26087;BME280;13851;43.434;28.338;2022-07-29T07:13:12;99969.88;;;31.78;90.43
26087;BME280;13851;43.434;28.338;2022-07-29T07:15:38;99974.00;;;31.86;74.38
26087;BME280;13851;43.434;28.338;2022-07-29T07:18:05;99972.50;;;31.88;80.25
26087;BME280;13851;43.434;28.338;2022-07-29T07:20:32;99972.34;;;31.71;65.05
26087;BME280;13851;43.434;28.338;2022-07-29T07:22:58;99975.69;;;31.73;65.82
26087;BME280;13851;43.434;28.338;2022-07-29T07:25:23;99966.84;;;31.88;65.85
26087;BME280;13851;43.434;28.338;2022-07-29T07:27:49;99937.06;;;31.77;71.13
26087;BME280;13851;43.434;28.338;2022-07-29T07:30:16;99968.28;;;31.99;64.93
26087;BME280;13851;43.434;28.338;2022-07-29T07:32:42;99955.19;;;31.90;61.96
26087;BME280;13851;43.434;28.338;2022-07-29T07:35:08;99966.34;;;31.86;72.03
26087;BME280;13851;43.434;28.338;2022-07-29T07:37:35;99941.56;;;31.78;68.71
26087;BME280;13851;43.434;28.338;2022-07-29T07:40:01;99967.81;;;32.06;67.45
26087;BME280;13851;43.434;28.338;2022-07-29T07:42:27;99959.88;;;32.17;69.38
26087;BME280;13851;43.434;28.338;2022-07-29T07:44:53;99968.47;;;32.34;61.23
26087;BME280;13851;43.434;28.338;2022-07-29T07:47:22;99962.13;;;32.51;62.03
26087;BME280;13851;43.434;28.338;2022-07-29T07:49:52;99970.53;;;32.73;60.05
26087;BME280;13851;43.434;28.338;2022-07-29T07:52:20;99927.25;;;32.50;52.23
26087;BME280;13851;43.434;28.338;2022-07-29T07:54:47;99988.41;;;32.74;52.92
26087;BME280;13851;43.434;28.338;2022-07-29T07:57:13;99954.84;;;32.67;52.33
26087;BME280;13851;43.434;28.338;2022-07-29T07:59:39;99952.69;;;32.73;50.34
26087;BME280;13851;43.434;28.338;2022-07-29T08:02:06;99940.16;;;32.74;50.12
26087;BME280;13851;43.434;28.338;2022-07-29T08:04:31;99787.75;;;32.00;49.04
26087;BME280;13851;43.434;28.338;2022-07-29T08:06:58;99992.44;;;33.30;50.31
26087;BME280;13851;43.434;28.338;2022-07-29T08:09:26;99993.53;;;33.43;47.67
26087;BME280;13851;43.434;28.338;2022-07-29T08:11:52;99933.97;;;33.20;45.69
26087;BME280;13851;43.434;28.338;2022-07-29T08:14:18;99993.72;;;33.63;45.73
26087;BME280;13851;43.434;28.338;2022-07-29T08:16:43;99912.25;;;33.16;45.19
26087;BME280;13851;43.434;28.338;2022-07-29T08:19:09;99900.72;;;33.03;46.36
26087;BME280;13851;43.434;28.338;2022-07-29T08:21:35;99973.78;;;33.37;44.68
26087;BME280;13851;43.434;28.338;2022-07-29T08:24:00;99961.66;;;32.97;45.78
26087;BME280;13851;43.434;28.338;2022-07-29T08:26:52;99990.09;;;33.23;44.76
26087;BME280;13851;43.434;28.338;2022-07-29T08:29:18;99963.00;;;33.08;45.05
26087;BME280;13851;43.434;28.338;2022-07-29T08:31:43;99939.81;;;33.15;44.10
26087;BME280;13851;43.434;28.338;2022-07-29T08:34:11;99985.34;;;33.58;44.99
26087;BME280;13851;43.434;28.338;2022-07-29T08:36:37;99967.63;;;33.70;43.43
26087;BME280;13851;43.434;28.338;2022-07-29T08:39:04;99977.66;;;33.85;45.14
26087;BME280;13851;43.434;28.338;2022-07-29T08:41:32;99974.47;;;33.78;38.25
26087;BME280;13851;43.434;28.338;2022-07-29T08:43:58;99973.97;;;33.67;39.04
26087;BME280;13851;43.434;28.338;2022-07-29T08:46:23;99982.16;;;33.43;42.50
26087;BME280;13851;43.434;28.338;2022-07-29T08:48:49;99964.19;;;33.07;40.59
26087;BME280;13851;43.434;28.338;2022-07-29T08:51:19;99985.72;;;33.08;43.32
26087;BME280;13851;43.434;28.338;2022-07-29T08:53:47;99979.06;;;33.13;42.36
26087;BME280;13851;43.434;28.338;2022-07-29T08:56:17;99774.84;;;31.85;41.29
26087;BME280;13851;43.434;28.338;2022-07-29T08:58:46;99974.91;;;33.28;42.55
26087;BME280;13851;43.434;28.338;2022-07-29T09:01:17;99973.09;;;33.41;42.39
26087;BME280;13851;43.434;28.338;2022-07-29T09:03:46;99953.84;;;33.20;43.63
26087;BME280;13851;43.434;28.338;2022-07-29T09:06:13;99967.53;;;33.18;44.86
26087;BME280;13851;43.434;28.338;2022-07-29T09:08:40;99964.25;;;33.33;43.24
26087;BME280;13851;43.434;28.338;2022-07-29T09:11:06;99958.38;;;33.30;44.76
26087;BME280;13851;43.434;28.338;2022-07-29T09:13:33;99959.38;;;33.25;42.19
26087;BME280;13851;43.434;28.338;2022-07-29T09:15:58;99924.25;;;33.04;46.71
26087;BME280;13851;43.434;28.338;2022-07-29T09:21:00;99967.66;;;33.96;44.42
26087;BME280;13851;43.434;28.338;2022-07-29T09:24:12;99962.56;;;34.28;43.07
26087;BME280;13851;43.434;28.338;2022-07-29T09:26:40;99948.88;;;34.12;44.72
26087;BME280;13851;43.434;28.338;2022-07-29T09:29:10;99968.25;;;34.45;44.76
26087;BME280;13851;43.434;28.338;2022-07-29T09:31:38;99999.50;;;34.54;44.89
26087;BME280;13851;43.434;28.338;2022-07-29T09:34:05;99916.53;;;34.34;44.12
26087;BME280;13851;43.434;28.338;2022-07-29T09:36:38;99963.06;;;34.47;44.67
26087;BME280;13851;43.434;28.338;2022-07-29T09:39:04;99781.94;;;33.57;44.79
26087;BME280;13851;43.434;28.338;2022-07-29T09:41:29;99977.00;;;34.70;43.86
26087;BME280;13851;43.434;28.338;2022-07-29T09:44:08;99951.06;;;35.09;45.77
26087;BME280;13851;43.434;28.338;2022-07-29T09:46:35;99952.69;;;35.19;43.55
26087;BME280;13851;43.434;28.338;2022-07-29T09:49:11;99952.84;;;35.23;44.73
26087;BME280;13851;43.434;28.338;2022-07-29T09:51:38;99944.59;;;35.51;42.61
26087;BME280;13851;43.434;28.338;2022-07-29T09:54:31;99945.56;;;35.76;42.42
26087;BME280;13851;43.434;28.338;2022-07-29T09:57:05;99952.72;;;35.61;44.55
26087;BME280;13851;43.434;28.338;2022-07-29T09:59:32;99915.03;;;35.13;45.96
26087;BME280;13851;43.434;28.338;2022-07-29T10:01:58;99880.78;;;34.25;47.93
26087;BME280;13851;43.434;28.338;2022-07-29T10:04:25;99921.25;;;34.30;47.59
26087;BME280;13851;43.434;28.338;2022-07-29T10:07:02;99932.28;;;34.79;49.55
26087;BME280;13851;43.434;28.338;2022-07-29T10:09:30;99947.22;;;35.05;46.55
26087;BME280;13851;43.434;28.338;2022-07-29T10:12:10;99908.66;;;35.16;44.19
26087;BME280;13851;43.434;28.338;2022-07-29T10:14:37;99927.00;;;35.28;43.35
26087;BME280;13851;43.434;28.338;2022-07-29T10:17:07;99937.66;;;35.10;43.28
26087;BME280;13851;43.434;28.338;2022-07-29T10:19:35;99938.34;;;34.69;43.86
26087;BME280;13851;43.434;28.338;2022-07-29T10:22:03;99922.72;;;34.83;45.81
26087;BME280;13851;43.434;28.338;2022-07-29T10:24:30;99939.06;;;35.25;43.26
26087;BME280;13851;43.434;28.338;2022-07-29T10:27:00;99945.50;;;35.63;45.53
26087;BME280;13851;43.434;28.338;2022-07-29T10:29:29;99938.13;;;35.83;42.07
26087;BME280;13851;43.434;28.338;2022-07-29T10:35:27;99941.75;;;35.72;44.12
26087;BME280;13851;43.434;28.338;2022-07-29T10:38:41;99943.19;;;35.57;45.58
26087;BME280;13851;43.434;28.338;2022-07-29T10:41:37;99942.28;;;35.44;47.64
26087;BME280;13851;43.434;28.338;2022-07-29T10:46:35;99924.81;;;35.54;46.89
26087;BME280;13851;43.434;28.338;2022-07-29T10:49:11;99914.72;;;35.57;45.09
26087;BME280;13851;43.434;28.338;2022-07-29T10:54:48;99913.75;;;35.53;44.39
26087;BME280;13851;43.434;28.338;2022-07-29T10:57:49;99939.81;;;35.63;45.62
26087;BME280;13851;43.434;28.338;2022-07-29T11:05:51;99927.41;;;36.01;45.40
26087;BME280;13851;43.434;28.338;2022-07-29T11:08:19;99916.00;;;35.80;44.14
26087;BME280;13851;43.434;28.338;2022-07-29T11:10:50;99933.56;;;35.49;48.39
26087;BME280;13851;43.434;28.338;2022-07-29T11:16:00;99909.47;;;35.80;43.89
26087;BME280;13851;43.434;28.338;2022-07-29T11:18:26;99917.59;;;35.90;43.13
26087;BME280;13851;43.434;28.338;2022-07-29T11:20:52;99917.59;;;35.90;43.45
26087;BME280;13851;43.434;28.338;2022-07-29T11:28:50;99901.97;;;35.75;43.39
26087;BME280;13851;43.434;28.338;2022-07-29T11:31:20;99903.75;;;36.01;42.83
26087;BME280;13851;43.434;28.338;2022-07-29T11:34:19;99888.41;;;35.72;41.88
26087;BME280;13851;43.434;28.338;2022-07-29T11:39:41;99912.47;;;36.16;41.68
26087;BME280;13851;43.434;28.338;2022-07-29T11:45:03;99912.63;;;36.20;39.99
26087;BME280;13851;43.434;28.338;2022-07-29T11:47:34;99848.53;;;36.05;41.16
26087;BME280;13851;43.434;28.338;2022-07-29T11:50:00;99711.72;;;35.39;39.94
26087;BME280;13851;43.434;28.338;2022-07-29T11:52:46;99887.59;;;36.50;38.19
26087;BME280;13851;43.434;28.338;2022-07-29T11:55:17;99886.16;;;36.68;37.97
26087;BME280;13851;43.434;28.338;2022-07-29T11:57:53;99844.75;;;36.38;39.03
26087;BME280;13851;43.434;28.338;2022-07-29T12:00:32;99892.84;;;36.73;38.21
26087;BME280;13851;43.434;28.338;2022-07-29T12:03:01;99878.19;;;36.74;37.31
26087;BME280;13851;43.434;28.338;2022-07-29T12:05:39;99863.84;;;36.01;38.31
26087;BME280;13851;43.434;28.338;2022-07-29T12:10:31;99873.28;;;35.92;37.72
26087;BME280;13851;43.434;28.338;2022-07-29T12:12:57;99867.16;;;36.03;38.68
26087;BME280;13851;43.434;28.338;2022-07-29T12:15:23;99863.69;;;35.97;36.60
26087;BME280;13851;43.434;28.338;2022-07-29T12:17:49;99671.13;;;34.55;37.48
26087;BME280;13851;43.434;28.338;2022-07-29T12:20:26;99884.88;;;36.08;37.09
26087;BME280;13851;43.434;28.338;2022-07-29T12:22:52;99693.16;;;35.21;37.15
26087;BME280;13851;43.434;28.338;2022-07-29T12:25:20;99863.59;;;36.51;36.63
26087;BME280;13851;43.434;28.338;2022-07-29T12:27:46;99866.31;;;36.72;37.37
26087;BME280;13851;43.434;28.338;2022-07-29T12:30:14;99838.13;;;36.46;37.76
26087;BME280;13851;43.434;28.338;2022-07-29T12:32:47;99863.44;;;36.84;35.13
26087;BME280;13851;43.434;28.338;2022-07-29T12:35:19;99860.00;;;37.03;35.40
26087;BME280;13851;43.434;28.338;2022-07-29T12:37:47;99865.59;;;37.00;35.48
26087;BME280;13851;43.434;28.338;2022-07-29T12:40:17;99858.09;;;36.83;37.07
26087;BME280;13851;43.434;28.338;2022-07-29T12:43:09;99857.72;;;37.09;36.16
26087;BME280;13851;43.434;28.338;2022-07-29T12:45:37;99656.47;;;35.77;35.72
26087;BME280;13851;43.434;28.338;2022-07-29T12:48:03;99858.09;;;36.95;33.26
26087;BME280;13851;43.434;28.338;2022-07-29T12:50:29;99851.91;;;36.81;34.71
26087;BME280;13851;43.434;28.338;2022-07-29T12:53:11;99836.22;;;36.62;37.01
26087;BME280;13851;43.434;28.338;2022-07-29T12:55:46;99819.91;;;36.26;35.10
26087;BME280;13851;43.434;28.338;2022-07-29T12:58:35;99823.09;;;36.00;37.19
26087;BME280;13851;43.434;28.338;2022-07-29T13:01:07;99809.66;;;35.67;36.53
26087;BME280;13851;43.434;28.338;2022-07-29T13:03:53;99849.59;;;36.13;36.61
26087;BME280;13851;43.434;28.338;2022-07-29T13:08:59;99836.91;;;36.35;35.50
26087;BME280;13851;43.434;28.338;2022-07-29T13:11:30;99836.88;;;36.10;34.75
26087;BME280;13851;43.434;28.338;2022-07-29T13:13:56;99840.47;;;35.86;37.13
26087;BME280;13851;43.434;28.338;2022-07-29T13:16:22;99818.75;;;35.49;36.91
26087;BME280;13851;43.434;28.338;2022-07-29T13:18:47;99837.06;;;35.60;38.59
26087;BME280;13851;43.434;28.338;2022-07-29T13:21:15;99828.03;;;35.91;37.51
26087;BME280;13851;43.434;28.338;2022-07-29T13:23:40;99845.22;;;36.28;37.11
26087;BME280;13851;43.434;28.338;2022-07-29T13:26:07;99794.47;;;35.76;37.56
26087;BME280;13851;43.434;28.338;2022-07-29T13:28:35;99842.13;;;36.33;38.12
26087;BME280;13851;43.434;28.338;2022-07-29T13:31:01;99834.81;;;36.56;37.02
26087;BME280;13851;43.434;28.338;2022-07-29T13:33:27;99527.88;;;34.72;35.79
26087;BME280;13851;43.434;28.338;2022-07-29T13:35:53;99841.41;;;36.85;36.03